Time;durP1;ratioP1;P1;durP2;ratioP2;P2;SDS_P1;SDS_P2;PMS_P1;PMS_P2;Temp;Humidity;BMP_temperature;BMP_pressure;BME280_temperature;BME280_humidity;BME280_pressure;Samples;Min_cycle;Max_cycle;Signal;HPM_P1;HPM_P2
2022/01/17 00:01:03;;;;;;;71.40;33.60;;;5.60;99.90;;;;;;4987052;28;20223;-82
2022/01/17 00:03:29;;;;;;;88.57;34.08;;;5.70;99.90;;;;;;4971100;28;20179;-82
2022/01/17 00:05:55;;;;;;;83.10;37.97;;;5.80;99.90;;;;;;4950695;28;20284;-82
2022/01/17 00:08:20;;;;;;;87.33;35.80;;;5.90;99.90;;;;;;4936362;29;20186;-83
2022/01/17 00:10:47;;;;;;;80.70;32.00;;;4.70;99.90;;;;;;4977910;28;20364;-83
2022/01/17 00:13:22;;;;;;;71.43;30.77;;;5.60;99.90;;;;;;4958247;28;20830;-80
2022/01/17 00:15:52;;;;;;;66.13;32.00;;;5.70;99.90;;;;;;4973869;28;20201;-81
2022/01/17 00:20:46;;;;;;;71.00;32.83;;;5.80;99.90;;;;;;4975297;28;20202;-81
2022/01/17 00:23:15;;;;;;;79.68;35.72;;;5.70;99.90;;;;;;4944767;29;20202;-81
2022/01/17 00:25:40;;;;;;;86.50;38.03;;;5.60;99.90;;;;;;4969401;28;20197;-81
2022/01/17 00:28:06;;;;;;;77.60;33.33;;;5.50;99.90;;;;;;4960500;28;20194;-81
2022/01/17 00:30:32;;;;;;;76.57;35.67;;;5.40;99.90;;;;;;4964349;28;20286;-81
2022/01/17 00:32:57;;;;;;;79.10;30.03;;;5.60;99.90;;;;;;4955930;28;20258;-82
2022/01/17 00:35:24;;;;;;;89.57;34.70;;;5.60;99.90;;;;;;4964941;28;20300;-82
2022/01/17 00:37:50;;;;;;;65.55;32.35;;;5.60;99.90;;;;;;4960152;28;20644;-82
2022/01/17 00:40:16;;;;;;;71.57;33.13;;;5.70;99.90;;;;;;4945917;28;20222;-82
2022/01/17 00:42:42;;;;;;;69.30;31.47;;;5.80;99.90;;;;;;4963647;28;20931;-83
2022/01/17 00:45:12;;;;;;;71.38;34.33;;;5.70;99.90;;;;;;4958843;28;20186;-83
2022/01/17 00:47:38;;;;;;;73.50;29.77;;;5.70;99.90;;;;;;4968120;28;20557;-82
2022/01/17 00:50:04;;;;;;;60.03;27.20;;;5.70;99.90;;;;;;4965134;28;20197;-83
2022/01/17 00:52:30;;;;;;;74.40;37.90;;;5.80;99.90;;;;;;4962209;28;20202;-82
2022/01/17 00:54:56;;;;;;;85.00;36.45;;;5.60;99.90;;;;;;4963672;28;20231;-82
2022/01/17 00:57:22;;;;;;;73.20;32.43;;;5.50;99.90;;;;;;4951002;28;20264;-83
2022/01/17 00:59:48;;;;;;;84.22;34.90;;;5.70;99.90;;;;;;4962476;28;20197;-83
2022/01/17 01:02:14;;;;;;;84.87;36.30;;;;;;;;;;4968191;28;20178;-83
2022/01/17 01:05:08;;;;;;;79.93;35.72;;;5.60;99.90;;;;;;4949198;28;20182;-82
2022/01/17 01:07:33;;;;;;;82.43;37.75;;;5.60;99.90;;;;;;4967991;28;20255;-83
2022/01/17 01:10:06;;;;;;;79.40;32.30;;;6.00;99.90;;;;;;4966504;28;20205;-83
2022/01/17 01:12:32;;;;;;;85.63;35.88;;;5.60;99.90;;;;;;4942398;29;20779;-82
2022/01/17 01:14:59;;;;;;;70.38;30.85;;;5.60;99.90;;;;;;4965261;28;20197;-82
2022/01/17 01:17:46;;;;;;;67.15;29.52;;;5.30;99.90;;;;;;4943206;28;20454;-83
2022/01/17 01:20:25;;;;;;;74.40;34.38;;;5.80;99.90;;;;;;4940365;28;20208;-82
2022/01/17 01:28:20;;;;;;;73.20;28.10;;;5.60;99.90;;;;;;4948744;28;20245;-82
2022/01/17 01:30:50;;;;;;;82.00;37.03;;;5.60;99.90;;;;;;4944163;28;20194;-82
2022/01/17 01:33:23;;;;;;;78.75;35.55;;;5.60;99.90;;;;;;4965924;28;20217;-82
2022/01/17 01:35:49;;;;;;;75.18;34.15;;;5.60;99.90;;;;;;4970379;28;20564;-83
2022/01/17 01:38:15;;;;;;;86.43;35.50;;;5.60;99.90;;;;;;4968028;28;20185;-83
2022/01/17 01:40:41;;;;;;;81.77;35.00;;;5.30;99.90;;;;;;4956488;28;20220;-83
2022/01/17 01:43:07;;;;;;;84.03;35.10;;;5.50;99.90;;;;;;4967108;28;20196;-82
2022/01/17 01:45:33;;;;;;;72.27;31.73;;;5.50;99.90;;;;;;4946937;28;20226;-82
2022/01/17 01:47:58;;;;;;;99.70;35.50;;;5.50;99.90;;;;;;4966501;28;20524;-82
2022/01/17 01:50:24;;;;;;;75.57;34.30;;;5.50;99.90;;;;;;4965887;28;20444;-81
2022/01/17 01:52:50;;;;;;;81.30;37.60;;;5.60;99.90;;;;;;4966785;28;20683;-82
2022/01/17 01:55:20;;;;;;;79.23;32.07;;;5.60;99.90;;;;;;4943678;28;20892;-82
2022/01/17 01:57:46;;;;;;;78.93;32.85;;;5.50;99.90;;;;;;4946555;28;20253;-82
2022/01/17 02:00:15;;;;;;;85.22;32.90;;;5.50;99.90;;;;;;4964453;28;20277;-82
2022/01/17 02:02:41;;;;;;;85.82;34.63;;;5.60;99.90;;;;;;4942322;29;20269;-82
2022/01/17 02:05:08;;;;;;;62.70;29.80;;;5.70;99.90;;;;;;4940907;28;20213;-82
2022/01/17 02:07:34;;;;;;;89.07;37.47;;;5.70;99.90;;;;;;4940382;28;20240;-82
2022/01/17 02:10:00;;;;;;;88.75;35.20;;;5.60;99.90;;;;;;4964555;28;20201;-81
2022/01/17 02:12:28;;;;;;;78.93;35.73;;;5.60;99.90;;;;;;4966508;28;20601;-82
2022/01/17 02:14:55;;;;;;;103.70;37.53;;;5.60;99.90;;;;;;4939322;28;20186;-81
2022/01/17 02:17:23;;;;;;;74.40;34.20;;;5.60;99.90;;;;;;4938063;29;20190;-82
2022/01/17 02:20:09;;;;;;;88.22;34.67;;;5.70;99.90;;;;;;4967986;28;20193;-82
2022/01/17 02:22:39;;;;;;;67.75;29.27;;;5.70;99.90;;;;;;4937968;28;20210;-82
2022/01/17 02:25:08;;;;;;;73.95;35.78;;;7.50;99.90;;;;;;4951845;28;20193;-82
2022/01/17 02:27:34;;;;;;;97.50;36.42;;;5.60;99.90;;;;;;4944316;28;20680;-82
2022/01/17 02:30:00;;;;;;;101.97;40.20;;;5.60;99.90;;;;;;4976334;28;20196;-82
2022/01/17 02:32:25;;;;;;;95.43;37.07;;;5.60;99.90;;;;;;4945498;28;21140;-82
2022/01/17 02:34:51;;;;;;;94.90;38.13;;;5.60;99.90;;;;;;4950017;28;20405;-82
2022/01/17 02:37:18;;;;;;;85.90;34.97;;;5.50;99.90;;;;;;4951254;28;20181;-82
2022/01/17 02:39:45;;;;;;;87.22;35.28;;;5.60;99.90;;;;;;4967640;28;20206;-82
2022/01/17 02:42:15;;;;;;;93.13;37.85;;;5.60;99.90;;;;;;4929554;29;20238;-82
2022/01/17 02:44:45;;;;;;;79.80;36.08;;;6.10;99.90;;;;;;4965969;28;20441;-82
2022/01/17 02:47:11;;;;;;;100.88;36.88;;;5.70;99.90;;;;;;4940483;29;20648;-83
2022/01/17 02:49:37;;;;;;;94.20;34.25;;;5.70;99.90;;;;;;4947304;28;20198;-82
2022/01/17 02:52:03;;;;;;;114.70;41.22;;;5.70;99.90;;;;;;4951005;28;20207;-82
2022/01/17 02:54:28;;;;;;;98.57;41.23;;;5.60;99.90;;;;;;4959605;28;20248;-82
2022/01/17 02:56:54;;;;;;;106.07;42.43;;;5.40;99.90;;;;;;4946359;29;20183;-82
2022/01/17 02:59:20;;;;;;;109.07;40.20;;;5.70;99.90;;;;;;4945679;28;20209;-81
2022/01/17 03:01:46;;;;;;;83.23;37.50;;;5.70;99.90;;;;;;4948428;29;20190;-83
2022/01/17 03:04:11;;;;;;;75.13;33.20;;;5.70;99.90;;;;;;4951655;28;20193;-82
2022/01/17 03:06:37;;;;;;;100.53;37.70;;;7.10;99.90;;;;;;4952911;29;20186;-82
2022/01/17 03:09:03;;;;;;;82.83;36.07;;;5.40;99.90;;;;;;4938155;29;20285;-82
2022/01/17 03:11:29;;;;;;;78.80;33.60;;;5.70;99.90;;;;;;4931576;29;20185;-82
2022/01/17 03:13:55;;;;;;;92.07;36.13;;;5.80;99.90;;;;;;4935599;29;20873;-82
2022/01/17 03:16:29;;;;;;;111.20;43.40;;;5.70;99.90;;;;;;4955897;28;20857;-82
2022/01/17 03:18:55;;;;;;;81.45;35.85;;;5.60;99.90;;;;;;4933244;29;20679;-82
2022/01/17 03:21:20;;;;;;;72.60;31.50;;;5.70;99.90;;;;;;4950401;28;20277;-82
2022/01/17 03:23:49;;;;;;;91.23;37.63;;;5.80;99.90;;;;;;4963145;28;20190;-82
2022/01/17 03:26:15;;;;;;;95.32;40.95;;;6.30;99.90;;;;;;4945618;29;20201;-83
2022/01/17 03:28:41;;;;;;;88.00;40.67;;;5.70;99.90;;;;;;4949335;29;20649;-82
2022/01/17 03:31:09;;;;;;;89.30;38.00;;;5.70;99.90;;;;;;4957593;28;20546;-81
2022/01/17 03:33:35;;;;;;;85.65;38.10;;;5.80;99.90;;;;;;4935216;29;20221;-83
2022/01/17 03:36:01;;;;;;;75.03;36.00;;;5.80;99.90;;;;;;4948001;28;20265;-81
2022/01/17 03:38:29;;;;;;;81.10;36.13;;;5.90;99.90;;;;;;4935555;29;20218;-82
2022/01/17 03:40:55;;;;;;;86.53;34.83;;;5.80;99.90;;;;;;4947544;28;20591;-82
2022/01/17 03:43:22;;;;;;;98.33;40.63;;;5.80;99.90;;;;;;4969526;28;20201;-83
2022/01/17 03:45:49;;;;;;;70.70;33.25;;;7.50;99.90;;;;;;4967753;28;20993;-81
2022/01/17 03:48:16;;;;;;;96.30;39.83;;;5.90;99.90;;;;;;4968703;28;20667;-81
2022/01/17 03:50:42;;;;;;;97.85;37.80;;;5.80;99.90;;;;;;4971040;28;20563;-81
2022/01/17 03:53:08;;;;;;;90.10;38.10;;;5.80;99.90;;;;;;4963186;28;20210;-83
2022/01/17 03:55:35;;;;;;;81.20;39.00;;;5.90;99.90;;;;;;4958718;28;20655;-81
2022/01/17 03:58:02;;;;;;;87.45;34.28;;;5.90;99.90;;;;;;4951892;28;20194;-83
2022/01/17 04:00:33;;;;;;;91.82;39.00;;;8.10;99.90;;;;;;4969275;28;20200;-81
2022/01/17 04:02:59;;;;;;;89.20;37.42;;;5.90;99.90;;;;;;4961593;28;20198;-82
2022/01/17 04:05:25;;;;;;;81.40;36.50;;;5.80;99.90;;;;;;4958329;28;20201;-81
2022/01/17 04:07:51;;;;;;;79.73;33.57;;;5.70;99.90;;;;;;4951479;28;20190;-83
2022/01/17 04:10:17;;;;;;;73.70;34.30;;;5.50;99.90;;;;;;4966999;28;20821;-82
2022/01/17 04:12:44;;;;;;;73.63;29.58;;;5.80;99.90;;;;;;4950449;28;20998;-81
2022/01/17 04:15:11;;;;;;;74.60;36.40;;;5.90;99.90;;;;;;4965854;28;20248;-83
2022/01/17 04:17:39;;;;;;;73.70;28.98;;;5.80;99.90;;;;;;4946963;29;20249;-81
2022/01/17 04:20:09;;;;;;;73.97;34.00;;;5.40;99.90;;;;;;4948669;28;20221;-82
2022/01/17 04:22:42;;;;;;;84.70;33.13;;;5.80;99.90;;;;;;4968315;28;20208;-82
2022/01/17 04:25:09;;;;;;;79.03;34.17;;;7.20;99.90;;;;;;4963700;28;20489;-81
2022/01/17 04:27:35;;;;;;;72.30;34.95;;;5.80;99.90;;;;;;4968573;28;20182;-82
2022/01/17 04:30:04;;;;;;;93.60;39.15;;;5.90;99.90;;;;;;4966282;28;20572;-82
2022/01/17 04:32:29;;;;;;;74.97;34.47;;;5.90;99.90;;;;;;4967394;28;20206;-81
2022/01/17 04:34:55;;;;;;;55.60;26.13;;;5.80;99.90;;;;;;4948189;28;20424;-82
2022/01/17 04:37:21;;;;;;;74.13;34.07;;;5.80;99.90;;;;;;4968121;28;20652;-82
2022/01/17 04:39:46;;;;;;;73.40;32.50;;;5.60;99.90;;;;;;4949083;28;20218;-81
2022/01/17 04:42:13;;;;;;;72.70;35.13;;;5.80;99.90;;;;;;4967739;28;20688;-82
2022/01/17 04:47:30;;;;;;;71.63;36.25;;;5.80;99.90;;;;;;4968104;28;20180;-82
2022/01/17 04:49:56;;;;;;;82.35;33.88;;;6.20;99.90;;;;;;4965684;28;20196;-81
2022/01/17 04:52:22;;;;;;;66.90;31.23;;;5.70;99.90;;;;;;4949927;28;20688;-81
2022/01/17 04:54:53;;;;;;;59.70;29.33;;;5.90;99.90;;;;;;4966184;28;20290;-81
2022/01/17 04:57:20;;;;;;;59.72;30.02;;;5.90;99.90;;;;;;4960628;28;20210;-81
2022/01/17 04:59:48;;;;;;;54.47;27.92;;;5.90;99.90;;;;;;4965747;28;20190;-81
2022/01/17 05:02:13;;;;;;;54.08;27.30;;;5.90;99.90;;;;;;4967178;28;20223;-81
2022/01/17 05:04:39;;;;;;;68.00;32.20;;;5.90;99.90;;;;;;4965826;28;20332;-81
2022/01/17 05:07:07;;;;;;;65.00;32.87;;;6.80;99.90;;;;;;4950429;28;20240;-80
2022/01/17 05:09:33;;;;;;;76.85;31.27;;;7.10;99.90;;;;;;4948548;28;20189;-80
2022/01/17 05:11:59;;;;;;;71.13;32.23;;;5.80;99.90;;;;;;4963075;28;20269;-81
2022/01/17 05:14:26;;;;;;;69.57;32.40;;;6.10;99.90;;;;;;4965205;28;20426;-81
2022/01/17 05:17:00;;;;;;;71.38;29.40;;;5.70;99.90;;;;;;4967366;28;20748;-81
2022/01/17 05:22:10;;;;;;;56.47;28.92;;;5.80;99.90;;;;;;4980591;23;20236;-90
2022/01/17 05:24:36;;;;;;;56.93;28.33;;;7.80;99.90;;;;;;4951783;28;20186;-90
2022/01/17 05:27:02;;;;;;;65.50;26.13;;;5.80;99.90;;;;;;4949396;28;20309;-89
2022/01/17 05:29:28;;;;;;;68.43;27.35;;;5.80;99.90;;;;;;4968817;28;20220;-91
2022/01/17 05:31:53;;;;;;;54.73;26.20;;;;;;;;;;4950650;28;20213;-90
2022/01/17 05:34:19;;;;;;;52.43;25.43;;;6.40;99.90;;;;;;4951666;28;20645;-90
2022/01/17 05:36:48;;;;;;;56.00;25.10;;;5.20;99.90;;;;;;4955707;28;20434;-90
2022/01/17 05:39:16;;;;;;;50.30;22.30;;;;;;;;;;4939838;28;20189;-89
2022/01/17 05:41:42;;;;;;;47.25;23.30;;;6.00;99.90;;;;;;4950374;28;20265;-90
2022/01/17 05:44:08;;;;;;;46.47;23.67;;;6.90;99.90;;;;;;4970603;28;20198;-90
2022/01/17 05:46:34;;;;;;;45.00;23.13;;;;;;;;;;4950185;28;20220;-89
2022/01/17 05:49:00;;;;;;;51.65;22.58;;;;;;;;;;4947435;29;20242;-90
2022/01/17 05:51:25;;;;;;;48.10;23.73;;;5.90;99.90;;;;;;4952211;28;20557;-90
2022/01/17 05:53:51;;;;;;;41.00;22.80;;;7.10;99.90;;;;;;4946680;29;20525;-89
2022/01/17 05:56:17;;;;;;;61.43;25.30;;;;;;;;;;4964537;28;20278;-89
2022/01/17 05:58:45;;;;;;;47.33;26.65;;;;;;;;;;4977064;28;20253;-89
2022/01/17 06:01:13;;;;;;;46.93;23.97;;;6.00;99.90;;;;;;4956935;28;20213;-89
2022/01/17 06:03:41;;;;;;;53.72;26.35;;;5.50;99.90;;;;;;4965534;28;20711;-85
2022/01/17 06:06:07;;;;;;;41.72;21.92;;;;;;;;;;4959279;28;20193;-89
2022/01/17 06:08:37;;;;;;;45.22;20.73;;;6.00;99.90;;;;;;4958558;28;20182;-89
2022/01/17 06:11:03;;;;;;;50.17;23.50;;;4.90;99.90;;;;;;4953356;28;20189;-89
2022/01/17 06:13:29;;;;;;;41.60;21.92;;;4.10;99.90;;;;;;4948925;29;20301;-90
2022/01/17 06:15:55;;;;;;;40.73;22.30;;;;;;;;;;4952688;28;20209;-89
2022/01/17 06:18:21;;;;;;;41.73;23.20;;;5.80;99.90;;;;;;4961328;28;20257;-90
2022/01/17 06:20:47;;;;;;;48.83;24.37;;;;;;;;;;4972885;28;20443;-91
2022/01/17 06:23:12;;;;;;;43.83;21.25;;;6.00;99.90;;;;;;4973477;28;20224;-89
2022/01/17 06:25:41;;;;;;;46.03;23.73;;;5.90;99.90;;;;;;4955517;28;20353;-91
2022/01/17 06:28:06;;;;;;;53.10;25.60;;;6.50;99.90;;;;;;4975304;28;20201;-89
2022/01/17 06:30:32;;;;;;;49.47;25.83;;;;;;;;;;4962232;28;20194;-90
2022/01/17 06:32:58;;;;;;;39.10;20.60;;;;;;;;;;4952162;28;20484;-90
2022/01/17 06:35:25;;;;;;;37.47;21.75;;;6.00;99.90;;;;;;4951945;28;20424;-91
2022/01/17 06:37:51;;;;;;;44.28;23.23;;;;;;;;;;4955252;28;20190;-91
2022/01/17 06:40:22;;;;;;;45.63;25.67;;;6.00;99.90;;;;;;4956086;28;20186;-91
2022/01/17 06:42:50;;;;;;;47.60;22.73;;;;;;;;;;4965121;28;20197;-90
2022/01/17 06:45:18;;;;;;;57.30;26.08;;;6.00;99.90;;;;;;4976872;28;20253;-92
2022/01/17 06:47:44;;;;;;;39.03;20.17;;;8.70;99.90;;;;;;4941434;28;20198;-89
2022/01/17 06:50:10;;;;;;;42.85;21.73;;;;;;;;;;4958837;28;20224;-88
2022/01/17 06:52:37;;;;;;;50.75;21.80;;;;;;;;;;4960510;28;20209;-89
2022/01/17 06:55:03;;;;;;;35.00;21.33;;;5.80;99.90;;;;;;4984284;28;20212;-89
2022/01/17 06:57:30;;;;;;;34.20;18.58;;;;;;;;;;4973012;28;20247;-90
2022/01/17 06:59:56;;;;;;;44.08;23.77;;;5.80;99.90;;;;;;4975943;28;20207;-92
2022/01/17 07:02:22;;;;;;;43.70;22.50;;;;;;;;;;4961947;28;20664;-89
2022/01/17 07:04:50;;;;;;;46.28;25.90;;;5.60;99.90;;;;;;4961600;28;20190;-90
2022/01/17 07:07:17;;;;;;;48.53;22.88;;;;;;;;;;4967566;28;20189;-91
2022/01/17 07:09:46;;;;;;;43.50;24.10;;;5.70;99.90;;;;;;4964617;28;20193;-91
2022/01/17 07:12:12;;;;;;;44.22;22.67;;;4.90;99.90;;;;;;4964570;28;20249;-91
2022/01/17 07:14:41;;;;;;;52.80;24.17;;;;;;;;;;4966341;28;20186;-90
2022/01/17 07:17:11;;;;;;;46.88;23.63;;;5.70;99.90;;;;;;4958947;28;20197;-91
2022/01/17 07:19:37;;;;;;;40.08;21.38;;;5.80;99.90;;;;;;4959552;28;20225;-90
2022/01/17 07:22:07;;;;;;;44.80;25.02;;;5.80;99.90;;;;;;4949718;28;20222;-89
2022/01/17 07:24:33;;;;;;;41.50;23.23;;;7.90;99.90;;;;;;4969044;28;20198;-91
2022/01/17 07:27:01;;;;;;;42.45;22.55;;;10.00;99.90;;;;;;4945403;29;20195;-92
2022/01/17 07:29:26;;;;;;;49.33;25.30;;;7.50;99.90;;;;;;4586812;28;10000593;-90
2022/01/17 07:31:54;;;;;;;43.20;23.10;;;5.40;99.90;;;;;;4950426;28;20299;-91
2022/01/17 07:34:20;;;;;;;41.47;21.40;;;4.50;99.90;;;;;;4939306;28;20469;-89
2022/01/17 07:36:48;;;;;;;54.63;24.70;;;5.50;99.90;;;;;;4959017;29;20664;-90
2022/01/17 07:39:38;;;;;;;48.33;24.13;;;5.40;99.90;;;;;;4946881;28;20453;-91
2022/01/17 07:42:04;;;;;;;43.63;23.55;;;4.80;99.90;;;;;;4942617;29;20553;-92
2022/01/17 07:44:34;;;;;;;39.63;22.38;;;5.90;99.90;;;;;;4944014;29;20444;-89
2022/01/17 07:47:04;;;;;;;34.65;21.38;;;5.50;99.90;;;;;;4970299;28;20198;-91
2022/01/17 07:49:33;;;;;;;33.72;21.10;;;5.50;99.90;;;;;;4940814;28;20248;-91
2022/01/17 07:52:05;;;;;;;44.20;22.75;;;5.60;99.90;;;;;;4952475;29;20218;-90
2022/01/17 07:54:43;;;;;;;37.28;19.50;;;8.10;99.90;;;;;;4947915;28;20200;-90
2022/01/17 07:57:14;;;;;;;46.03;23.27;;;5.60;99.90;;;;;;4959098;28;20189;-91
2022/01/17 07:59:42;;;;;;;37.90;22.85;;;5.70;99.90;;;;;;4943435;29;20179;-90
2022/01/17 08:02:07;;;;;;;40.58;21.55;;;7.70;99.90;;;;;;4937038;29;20597;-92
2022/01/17 08:04:33;;;;;;;46.10;22.60;;;;;;;;;;4947066;28;20197;-90
2022/01/17 08:06:59;;;;;;;42.43;22.53;;;5.80;99.90;;;;;;4939804;29;20387;-89
2022/01/17 08:09:37;;;;;;;39.67;20.90;;;5.70;99.90;;;;;;4946570;29;20433;-90
2022/01/17 08:12:05;;;;;;;44.47;22.07;;;4.70;99.90;;;;;;4933858;29;20215;-90
2022/01/17 08:14:36;;;;;;;36.00;21.83;;;6.50;99.90;;;;;;4935993;29;20246;-90
2022/01/17 08:17:05;;;;;;;41.28;22.42;;;8.00;99.90;;;;;;4935502;29;20218;-90
2022/01/17 08:19:35;;;;;;;40.28;20.58;;;7.00;99.90;;;;;;4940304;28;20257;-91
2022/01/17 08:22:03;;;;;;;32.15;21.05;;;6.10;99.90;;;;;;4946234;28;20217;-89
2022/01/17 08:24:29;;;;;;;35.58;20.83;;;6.10;99.90;;;;;;4957199;28;20198;-88
2022/01/17 08:26:56;;;;;;;40.45;22.40;;;8.90;99.90;;;;;;4960780;28;20236;-92
2022/01/17 08:29:25;;;;;;;43.45;24.17;;;;;;;;;;4958212;28;20205;-90
2022/01/17 08:31:51;;;;;;;43.35;26.35;;;6.10;99.90;;;;;;4953192;28;20222;-90
2022/01/17 08:34:17;;;;;;;37.00;21.70;;;;;;;;;;4983501;28;20221;-90
2022/01/17 08:36:44;;;;;;;29.58;23.95;;;6.20;99.90;;;;;;4956264;28;20476;-90
2022/01/17 08:39:10;;;;;;;42.03;22.73;;;5.90;99.90;;;;;;4957879;28;20245;-90
2022/01/17 08:41:37;;;;;;;33.65;22.35;;;9.40;99.90;;;;;;4976408;28;20174;-92
2022/01/17 08:44:03;;;;;;;38.97;22.15;;;9.90;99.90;;;;;;4977211;28;20344;-90
2022/01/17 08:46:29;;;;;;;30.13;23.50;;;6.20;99.90;;;;;;4959387;28;20318;-91
2022/01/17 08:48:55;;;;;;;42.43;25.67;;;;;;;;;;4978674;28;20166;-88
2022/01/17 08:51:21;;;;;;;28.20;17.42;;;;;;;;;;4958425;28;20471;-89
2022/01/17 08:53:46;;;;;;;33.90;24.98;;;6.40;99.90;;;;;;4975303;28;20283;-89
2022/01/17 08:56:13;;;;;;;34.70;22.53;;;;;;;;;;4957641;28;20603;-89
2022/01/17 08:58:39;;;;;;;37.10;23.92;;;;;;;;;;4959400;28;20182;-88
2022/01/17 09:01:14;;;;;;;34.47;22.42;;;6.50;99.90;;;;;;4975135;28;20186;-90
2022/01/17 09:03:51;;;;;;;32.83;22.02;;;9.00;99.90;;;;;;4956494;28;20329;-89
2022/01/17 09:06:26;;;;;;;30.48;21.20;;;6.40;99.90;;;;;;4965743;28;20178;-88
2022/01/17 09:08:52;;;;;;;33.58;18.30;;;7.00;99.90;;;;;;4961695;28;20269;-89
2022/01/17 09:11:20;;;;;;;33.58;23.98;;;5.80;99.90;;;;;;4948436;29;20183;-89
2022/01/17 09:13:49;;;;;;;32.05;19.60;;;6.50;99.90;;;;;;4953805;28;20283;-89
2022/01/17 09:16:15;;;;;;;19.90;12.25;;;;;;;;;;4954734;28;20189;-90
2022/01/17 09:18:40;;;;;;;34.60;22.23;;;6.50;99.90;;;;;;4950593;29;20373;-89
2022/01/17 09:21:06;;;;;;;30.13;19.73;;;6.50;99.90;;;;;;4974798;28;20185;-87
2022/01/17 09:23:48;;;;;;;32.87;23.30;;;6.50;99.90;;;;;;4975802;28;20178;-90
2022/01/17 09:26:14;;;;;;;32.13;23.05;;;4.90;99.90;;;;;;4953790;28;20436;-90
2022/01/17 09:28:40;;;;;;;31.97;22.50;;;6.10;99.90;;;;;;4973260;28;20253;-88
2022/01/17 09:31:06;;;;;;;34.00;22.50;;;;;;;;;;4953895;28;20174;-90
2022/01/17 09:33:34;;;;;;;30.65;23.85;;;;;;;;;;4973029;28;20202;-90
2022/01/17 09:36:00;;;;;;;36.08;23.73;;;6.60;99.90;;;;;;4952198;28;20236;-89
2022/01/17 09:38:25;;;;;;;34.03;23.77;;;6.60;99.90;;;;;;4970983;28;20296;-90
2022/01/17 09:40:52;;;;;;;30.43;23.70;;;;;;;;;;4955157;28;20182;-90
2022/01/17 09:43:20;;;;;;;34.97;25.13;;;6.50;99.90;;;;;;4975371;28;20209;-88
2022/01/17 09:45:49;;;;;;;32.33;22.60;;;7.10;99.90;;;;;;4956818;28;20190;-90
2022/01/17 09:48:19;;;;;;;32.40;21.65;;;8.20;99.90;;;;;;4972776;28;20274;-88
2022/01/17 09:51:00;;;;;;;32.35;21.08;;;6.50;99.90;;;;;;4632274;28;10000881;-87
2022/01/17 09:53:28;;;;;;;34.05;20.90;;;7.90;99.90;;;;;;4953558;28;20600;-89
2022/01/17 09:56:01;;;;;;;29.55;20.35;;;9.20;99.90;;;;;;4950933;28;20206;-90
2022/01/17 09:58:28;;;;;;;28.77;19.35;;;9.20;99.90;;;;;;4952906;28;20236;-89
2022/01/17 10:00:55;;;;;;;28.58;23.35;;;5.50;99.90;;;;;;4971236;28;20226;-90
2022/01/17 10:03:21;;;;;;;27.90;18.10;;;6.70;99.90;;;;;;4973658;28;20217;-90
2022/01/17 10:05:47;;;;;;;33.85;20.90;;;5.80;99.90;;;;;;4954850;28;20190;-89
2022/01/17 10:08:16;;;;;;;45.22;24.25;;;6.60;99.90;;;;;;4946227;28;20202;-88
2022/01/17 10:10:54;;;;;;;34.55;20.90;;;6.60;99.90;;;;;;4968978;28;20286;-88
2022/01/17 10:13:30;;;;;;;40.97;26.13;;;6.50;99.90;;;;;;4949028;28;20680;-91
2022/01/17 10:16:11;;;;;;;34.15;24.08;;;5.90;99.90;;;;;;4951064;28;20268;-91
2022/01/17 10:18:54;;;;;;;35.53;22.38;;;8.80;99.90;;;;;;4956404;28;20240;-90
2022/01/17 10:21:36;;;;;;;38.22;26.73;;;6.50;99.90;;;;;;4965908;28;20229;-90
2022/01/17 10:37:13;;;;;;;42.92;27.85;;;6.10;99.90;;;;;;4974411;28;20212;-90
2022/01/17 10:40:10;;;;;;;44.92;29.23;;;6.30;99.90;;;;;;4961874;28;20217;-89
2022/01/17 10:42:42;;;;;;;52.88;26.20;;;6.30;99.90;;;;;;4971556;28;20552;-90
2022/01/17 10:45:17;;;;;;;38.45;26.05;;;4.70;99.90;;;;;;4978589;28;20604;-91
2022/01/17 10:47:44;;;;;;;45.35;28.48;;;4.50;99.90;;;;;;4962655;28;20185;-89
2022/01/17 10:50:18;;;;;;;38.67;27.60;;;6.00;99.90;;;;;;4985621;28;20202;-89
2022/01/17 10:52:52;;;;;;;44.67;29.90;;;7.60;99.90;;;;;;4963214;28;20206;-92
2022/01/17 10:55:25;;;;;;;53.10;29.40;;;7.10;99.90;;;;;;4977015;28;20683;-90
2022/01/17 10:57:59;;;;;;;43.22;27.02;;;6.30;99.90;;;;;;4965236;28;20190;-91
2022/01/17 11:00:45;;;;;;;36.40;25.83;;;7.70;99.90;;;;;;4969549;28;20174;-91
2022/01/17 11:03:24;;;;;;;42.60;26.40;;;7.10;99.90;;;;;;4960774;28;20253;-91
2022/01/17 11:05:58;;;;;;;36.72;21.80;;;9.30;99.90;;;;;;4969132;28;20193;-90
2022/01/17 11:08:28;;;;;;;40.08;27.13;;;6.40;99.90;;;;;;4983943;28;20395;-90
2022/01/17 11:11:01;;;;;;;38.75;27.00;;;5.40;99.90;;;;;;4963352;28;20178;-92
2022/01/17 11:13:33;;;;;;;42.88;29.33;;;6.20;99.90;;;;;;4966227;28;20233;-90
2022/01/17 11:16:07;;;;;;;37.45;21.20;;;8.10;99.90;;;;;;4978528;28;20177;-91
2022/01/17 11:18:35;;;;;;;42.80;25.73;;;5.90;99.90;;;;;;4963348;28;20190;-91
2022/01/17 11:21:11;;;;;;;62.13;31.50;;;5.40;99.90;;;;;;4960078;28;20201;-91
2022/01/17 11:23:43;;;;;;;38.42;24.58;;;6.40;99.90;;;;;;4969087;28;20197;-92
2022/01/17 11:26:10;;;;;;;45.85;25.90;;;8.00;99.90;;;;;;4963656;28;20189;-92
2022/01/17 11:28:48;;;;;;;50.42;28.80;;;9.80;99.90;;;;;;4981385;28;20196;-93
2022/01/17 11:31:17;;;;;;;43.83;26.67;;;6.30;99.90;;;;;;5001361;28;20253;-88
2022/01/17 11:33:48;;;;;;;45.10;30.67;;;6.20;99.90;;;;;;4974714;28;20229;-92
2022/01/17 11:36:17;;;;;;;44.78;29.65;;;10.40;99.90;;;;;;4962205;28;20178;-92
2022/01/17 11:39:15;;;;;;;48.92;29.85;;;6.50;99.90;;;;;;4975216;28;20237;-92
2022/01/17 11:41:48;;;;;;;44.92;27.42;;;6.10;99.90;;;;;;4969705;28;20220;-93
2022/01/17 11:44:14;;;;;;;42.77;24.83;;;;;;;;;;4632896;28;9999853;-91
2022/01/17 11:46:51;;;;;;;49.97;28.20;;;6.40;99.90;;;;;;4978899;28;20185;-89
2022/01/17 11:49:26;;;;;;;52.60;27.15;;;6.60;99.90;;;;;;4973009;28;20448;-93
2022/01/17 11:51:55;;;;;;;41.38;25.98;;;7.30;99.90;;;;;;4957084;28;20204;-94
2022/01/17 11:54:27;;;;;;;45.75;27.73;;;7.60;99.90;;;;;;4957513;28;20695;-91
2022/01/17 11:57:06;;;;;;;51.13;29.13;;;8.90;99.90;;;;;;4961458;28;20257;-90
2022/01/17 11:59:48;;;;;;;36.28;28.08;;;7.50;99.90;;;;;;4969754;28;20293;-95
2022/01/17 12:02:24;;;;;;;39.88;24.35;;;7.00;99.90;;;;;;4942575;28;20543;-89
2022/01/17 12:05:10;;;;;;;49.15;31.65;;;5.80;99.90;;;;;;4958977;28;20193;-93
2022/01/17 12:07:37;;;;;;;35.13;21.58;;;9.20;99.90;;;;;;4964310;28;20241;-93
2022/01/17 12:10:11;;;;;;;40.08;27.42;;;6.30;99.90;;;;;;4975967;28;20205;-95
2022/01/17 12:12:38;;;;;;;38.17;25.20;;;8.00;99.90;;;;;;4962795;28;20217;-92
2022/01/17 12:15:15;;;;;;;37.25;24.50;;;8.70;99.90;;;;;;4962505;28;20186;-93
2022/01/17 12:17:43;;;;;;;45.55;26.95;;;8.90;99.90;;;;;;4959749;28;20192;-93
2022/01/17 12:20:13;;;;;;;40.40;27.77;;;6.20;99.90;;;;;;4962943;28;20396;-91
2022/01/17 12:22:39;;;;;;;43.55;27.38;;;7.80;99.90;;;;;;4961049;28;20237;-92
2022/01/17 12:25:31;;;;;;;45.33;25.77;;;6.10;99.90;;;;;;4967695;28;20198;-95
2022/01/17 12:28:04;;;;;;;41.60;24.85;;;7.70;99.90;;;;;;4975202;28;20221;-92
2022/01/17 12:30:41;;;;;;;37.03;25.90;;;5.30;99.90;;;;;;4964452;28;20212;-93
2022/01/17 12:33:12;;;;;;;38.47;21.92;;;9.10;99.90;;;;;;4961119;28;20457;-93
2022/01/17 12:35:46;;;;;;;47.50;25.88;;;7.50;99.90;;;;;;4958385;28;20209;-90
2022/01/17 12:38:29;;;;;;;46.17;26.95;;;5.70;99.90;;;;;;4982428;28;20488;-93
2022/01/17 12:41:24;;;;;;;44.22;27.55;;;5.30;99.90;;;;;;4961885;28;20189;-92
2022/01/17 12:43:54;;;;;;;40.60;25.92;;;6.50;99.90;;;;;;4981662;28;20170;-93
2022/01/17 12:46:20;;;;;;;45.08;26.20;;;7.00;99.90;;;;;;4965570;28;20189;-92
2022/01/17 12:48:48;;;;;;;40.92;23.15;;;6.50;99.90;;;;;;4965487;28;20389;-91
2022/01/17 12:51:19;;;;;;;50.63;26.48;;;8.30;99.90;;;;;;4971685;28;20209;-91
2022/01/17 12:53:53;;;;;;;38.90;23.58;;;7.20;99.90;;;;;;4961174;28;20222;-92
2022/01/17 12:56:19;;;;;;;42.00;25.65;;;6.60;99.90;;;;;;4976507;28;20189;-91
2022/01/17 12:58:45;;;;;;;43.93;27.60;;;8.80;99.90;;;;;;4960645;28;20190;-90
2022/01/17 13:01:17;;;;;;;45.03;24.92;;;6.00;99.90;;;;;;4974393;28;20276;-91
2022/01/17 13:03:49;;;;;;;42.55;25.98;;;5.60;99.90;;;;;;4957743;28;20682;-90
2022/01/17 13:06:20;;;;;;;41.47;25.13;;;9.20;99.90;;;;;;4961918;28;20182;-93
2022/01/17 13:08:53;;;;;;;30.08;18.38;;;8.00;99.90;;;;;;4959934;28;20714;-92
2022/01/17 13:11:27;;;;;;;40.78;24.65;;;7.10;99.90;;;;;;4951068;28;20656;-91
2022/01/17 13:13:59;;;;;;;42.95;24.33;;;6.90;99.90;;;;;;4970707;28;20699;-91
2022/01/17 13:16:30;;;;;;;40.47;20.73;;;7.10;99.90;;;;;;4960672;28;20711;-90
2022/01/17 13:18:58;;;;;;;40.75;22.42;;;7.40;99.90;;;;;;4964393;28;20229;-93
2022/01/17 13:21:24;;;;;;;34.65;22.83;;;7.30;99.90;;;;;;4962942;28;20224;-92